sensor_id;sensor_type;location;lat;lon;timestamp;temperature;humidity
36322;DHT22;23564;48.290;11.460;2022-08-03T00:00:41;18.20;45.60
36322;DHT22;23564;48.290;11.460;2022-08-03T00:03:07;18.20;45.80
36322;DHT22;23564;48.290;11.460;2022-08-03T00:05:33;18.10;75.70
36322;DHT22;23564;48.290;11.460;2022-08-03T00:07:59;18.10;60.30
36322;DHT22;23564;48.290;11.460;2022-08-03T00:10:25;18.00;95.70
36322;DHT22;23564;48.290;11.460;2022-08-03T00:12:51;18.00;99.90
36322;DHT22;23564;48.290;11.460;2022-08-03T00:15:17;17.90;99.90
36322;DHT22;23564;48.290;11.460;2022-08-03T00:17:44;17.90;99.90
36322;DHT22;23564;48.290;11.460;2022-08-03T00:20:10;17.90;99.90
36322;DHT22;23564;48.290;11.460;2022-08-03T00:22:36;17.80;99.90
36322;DHT22;23564;48.290;11.460;2022-08-03T00:25:02;17.80;99.90
36322;DHT22;23564;48.290;11.460;2022-08-03T00:27:27;17.80;99.90
36322;DHT22;23564;48.290;11.460;2022-08-03T00:29:53;17.70;99.90
36322;DHT22;23564;48.290;11.460;2022-08-03T00:32:18;17.70;99.90
36322;DHT22;23564;48.290;11.460;2022-08-03T00:34:44;17.70;99.90
36322;DHT22;23564;48.290;11.460;2022-08-03T00:37:09;17.60;99.90
36322;DHT22;23564;48.290;11.460;2022-08-03T00:39:35;17.60;99.90
36322;DHT22;23564;48.290;11.460;2022-08-03T00:42:02;17.60;99.90
36322;DHT22;23564;48.290;11.460;2022-08-03T00:44:28;17.50;99.90
36322;DHT22;23564;48.290;11.460;2022-08-03T00:46:53;17.50;99.90
36322;DHT22;23564;48.290;11.460;2022-08-03T00:49:19;17.50;99.90
36322;DHT22;23564;48.290;11.460;2022-08-03T00:51:45;17.50;99.90
36322;DHT22;23564;48.290;11.460;2022-08-03T00:54:12;17.40;99.90
36322;DHT22;23564;48.290;11.460;2022-08-03T00:56:39;17.40;99.90
36322;DHT22;23564;48.290;11.460;2022-08-03T00:59:05;17.40;99.90
36322;DHT22;23564;48.290;11.460;2022-08-03T01:01:31;17.40;99.90
36322;DHT22;23564;48.290;11.460;2022-08-03T01:03:56;17.40;99.90
36322;DHT22;23564;48.290;11.460;2022-08-03T01:06:33;17.40;99.90
36322;DHT22;23564;48.290;11.460;2022-08-03T01:12:12;17.40;99.90
36322;DHT22;23564;48.290;11.460;2022-08-03T01:14:54;17.30;99.90
36322;DHT22;23564;48.290;11.460;2022-08-03T01:20:12;17.30;99.90
36322;DHT22;23564;48.290;11.460;2022-08-03T01:25:44;17.20;99.90
36322;DHT22;23564;48.290;11.460;2022-08-03T01:31:47;17.10;99.90
36322;DHT22;23564;48.290;11.460;2022-08-03T01:34:14;17.10;99.90
36322;DHT22;23564;48.290;11.460;2022-08-03T01:36:52;17.20;99.90
36322;DHT22;23564;48.290;11.460;2022-08-03T01:39:21;17.10;99.90
36322;DHT22;23564;48.290;11.460;2022-08-03T01:41:52;17.20;99.90
36322;DHT22;23564;48.290;11.460;2022-08-03T01:44:23;17.10;99.90
36322;DHT22;23564;48.290;11.460;2022-08-03T01:46:50;17.10;99.90
36322;DHT22;23564;48.290;11.460;2022-08-03T01:49:17;17.10;99.90
36322;DHT22;23564;48.290;11.460;2022-08-03T01:51:45;17.10;99.90
36322;DHT22;23564;48.290;11.460;2022-08-03T01:54:12;17.10;99.90
36322;DHT22;23564;48.290;11.460;2022-08-03T01:56:39;17.10;99.90
36322;DHT22;23564;48.290;11.460;2022-08-03T01:59:06;17.10;99.90
36322;DHT22;23564;48.290;11.460;2022-08-03T02:01:34;17.10;99.90
36322;DHT22;23564;48.290;11.460;2022-08-03T02:04:02;17.10;99.90
36322;DHT22;23564;48.290;11.460;2022-08-03T02:06:30;17.00;99.90
36322;DHT22;23564;48.290;11.460;2022-08-03T02:08:58;17.00;99.90
36322;DHT22;23564;48.290;11.460;2022-08-03T02:11:25;17.00;99.90
36322;DHT22;23564;48.290;11.460;2022-08-03T02:13:51;17.00;99.90
36322;DHT22;23564;48.290;11.460;2022-08-03T02:16:18;17.00;99.90
36322;DHT22;23564;48.290;11.460;2022-08-03T02:18:46;16.90;99.90
36322;DHT22;23564;48.290;11.460;2022-08-03T02:21:12;16.90;99.90
36322;DHT22;23564;48.290;11.460;2022-08-03T02:23:39;16.90;99.90
36322;DHT22;23564;48.290;11.460;2022-08-03T02:26:07;16.90;99.90
36322;DHT22;23564;48.290;11.460;2022-08-03T02:28:37;16.80;99.90
36322;DHT22;23564;48.290;11.460;2022-08-03T02:31:06;16.80;99.90
36322;DHT22;23564;48.290;11.460;2022-08-03T02:33:46;16.80;99.90
36322;DHT22;23564;48.290;11.460;2022-08-03T02:36:13;16.70;99.90
36322;DHT22;23564;48.290;11.460;2022-08-03T02:38:42;16.80;99.90
36322;DHT22;23564;48.290;11.460;2022-08-03T02:41:15;16.70;99.90
36322;DHT22;23564;48.290;11.460;2022-08-03T02:43:44;16.70;99.90
36322;DHT22;23564;48.290;11.460;2022-08-03T02:46:12;16.80;99.90
36322;DHT22;23564;48.290;11.460;2022-08-03T02:48:40;16.70;99.90
36322;DHT22;23564;48.290;11.460;2022-08-03T02:51:08;16.70;99.90
36322;DHT22;23564;48.290;11.460;2022-08-03T02:53:35;16.70;99.90
36322;DHT22;23564;48.290;11.460;2022-08-03T02:56:02;16.60;99.90
36322;DHT22;23564;48.290;11.460;2022-08-03T02:58:30;16.70;99.90
36322;DHT22;23564;48.290;11.460;2022-08-03T03:00:56;16.60;99.90
36322;DHT22;23564;48.290;11.460;2022-08-03T03:03:22;16.60;99.90
36322;DHT22;23564;48.290;11.460;2022-08-03T03:05:50;16.60;99.90
36322;DHT22;23564;48.290;11.460;2022-08-03T03:08:18;16.60;99.90
36322;DHT22;23564;48.290;11.460;2022-08-03T03:10:44;16.60;99.90
36322;DHT22;23564;48.290;11.460;2022-08-03T03:13:11;16.50;99.90
36322;DHT22;23564;48.290;11.460;2022-08-03T03:15:38;16.50;99.90
36322;DHT22;23564;48.290;11.460;2022-08-03T03:18:06;16.40;99.90
36322;DHT22;23564;48.290;11.460;2022-08-03T03:20:36;16.40;99.90
36322;DHT22;23564;48.290;11.460;2022-08-03T03:23:03;16.40;99.90
36322;DHT22;23564;48.290;11.460;2022-08-03T03:25:32;16.40;99.90
36322;DHT22;23564;48.290;11.460;2022-08-03T03:27:59;16.40;99.90
36322;DHT22;23564;48.290;11.460;2022-08-03T03:30:26;16.30;99.90
36322;DHT22;23564;48.290;11.460;2022-08-03T03:32:52;16.40;99.90
36322;DHT22;23564;48.290;11.460;2022-08-03T03:35:18;16.40;99.90
36322;DHT22;23564;48.290;11.460;2022-08-03T03:37:44;16.30;99.90
36322;DHT22;23564;48.290;11.460;2022-08-03T03:40:10;16.40;99.90
36322;DHT22;23564;48.290;11.460;2022-08-03T03:42:36;16.30;99.90
36322;DHT22;23564;48.290;11.460;2022-08-03T03:45:06;16.30;99.90
36322;DHT22;23564;48.290;11.460;2022-08-03T03:47:33;16.30;99.90
36322;DHT22;23564;48.290;11.460;2022-08-03T03:50:01;16.30;99.90
36322;DHT22;23564;48.290;11.460;2022-08-03T03:52:27;16.30;99.90
36322;DHT22;23564;48.290;11.460;2022-08-03T03:54:52;16.30;99.90
36322;DHT22;23564;48.290;11.460;2022-08-03T03:57:18;16.30;99.90
36322;DHT22;23564;48.290;11.460;2022-08-03T03:59:44;16.30;99.90
36322;DHT22;23564;48.290;11.460;2022-08-03T04:02:10;16.30;99.90
36322;DHT22;23564;48.290;11.460;2022-08-03T04:04:36;16.30;99.90
36322;DHT22;23564;48.290;11.460;2022-08-03T04:07:24;16.30;99.90
36322;DHT22;23564;48.290;11.460;2022-08-03T04:10:17;16.30;99.90
36322;DHT22;23564;48.290;11.460;2022-08-03T04:13:07;16.30;99.90
36322;DHT22;23564;48.290;11.460;2022-08-03T04:15:36;16.30;99.90
36322;DHT22;23564;48.290;11.460;2022-08-03T04:18:02;16.30;99.90
36322;DHT22;23564;48.290;11.460;2022-08-03T04:20:31;16.30;99.90
36322;DHT22;23564;48.290;11.460;2022-08-03T04:22:59;16.30;99.90
36322;DHT22;23564;48.290;11.460;2022-08-03T04:25:28;16.40;99.90
36322;DHT22;23564;48.290;11.460;2022-08-03T04:27:56;16.40;99.90
36322;DHT22;23564;48.290;11.460;2022-08-03T04:30:26;16.40;99.90
36322;DHT22;23564;48.290;11.460;2022-08-03T04:32:54;16.40;99.90
36322;DHT22;23564;48.290;11.460;2022-08-03T04:35:22;16.40;99.90
36322;DHT22;23564;48.290;11.460;2022-08-03T04:37:50;16.40;99.90
36322;DHT22;23564;48.290;11.460;2022-08-03T04:40:35;16.40;99.90
36322;DHT22;23564;48.290;11.460;2022-08-03T04:43:01;16.40;99.90
36322;DHT22;23564;48.290;11.460;2022-08-03T04:45:28;16.40;99.90
36322;DHT22;23564;48.290;11.460;2022-08-03T04:47:55;16.50;99.90
36322;DHT22;23564;48.290;11.460;2022-08-03T04:50:21;16.50;99.90
36322;DHT22;23564;48.290;11.460;2022-08-03T04:52:48;16.50;99.90
36322;DHT22;23564;48.290;11.460;2022-08-03T04:55:27;16.60;99.90
36322;DHT22;23564;48.290;11.460;2022-08-03T04:57:53;16.60;99.90
36322;DHT22;23564;48.290;11.460;2022-08-03T05:00:19;16.60;99.90
36322;DHT22;23564;48.290;11.460;2022-08-03T05:02:45;16.70;99.90
36322;DHT22;23564;48.290;11.460;2022-08-03T05:05:11;16.70;99.90
36322;DHT22;23564;48.290;11.460;2022-08-03T05:07:36;16.80;99.90
36322;DHT22;23564;48.290;11.460;2022-08-03T05:10:07;16.80;99.90
36322;DHT22;23564;48.290;11.460;2022-08-03T05:12:33;16.80;99.90
36322;DHT22;23564;48.290;11.460;2022-08-03T05:15:00;16.90;99.90
36322;DHT22;23564;48.290;11.460;2022-08-03T05:17:26;17.00;99.90
36322;DHT22;23564;48.290;11.460;2022-08-03T05:19:51;17.00;99.90
36322;DHT22;23564;48.290;11.460;2022-08-03T05:22:17;17.10;99.90
36322;DHT22;23564;48.290;11.460;2022-08-03T05:24:42;17.10;99.90
36322;DHT22;23564;48.290;11.460;2022-08-03T05:27:08;17.20;99.90
36322;DHT22;23564;48.290;11.460;2022-08-03T05:29:34;17.20;99.90
36322;DHT22;23564;48.290;11.460;2022-08-03T05:31:59;17.20;99.90
36322;DHT22;23564;48.290;11.460;2022-08-03T05:34:26;17.30;99.90
36322;DHT22;23564;48.290;11.460;2022-08-03T05:36:52;17.30;99.90
36322;DHT22;23564;48.290;11.460;2022-08-03T05:39:17;17.40;99.90
36322;DHT22;23564;48.290;11.460;2022-08-03T05:41:43;17.40;99.90
36322;DHT22;23564;48.290;11.460;2022-08-03T05:44:08;17.50;99.90
36322;DHT22;23564;48.290;11.460;2022-08-03T05:46:34;17.60;99.90
36322;DHT22;23564;48.290;11.460;2022-08-03T05:48:59;17.70;99.90
36322;DHT22;23564;48.290;11.460;2022-08-03T05:51:25;17.90;99.90
36322;DHT22;23564;48.290;11.460;2022-08-03T05:53:52;18.10;99.90
36322;DHT22;23564;48.290;11.460;2022-08-03T05:56:21;18.20;99.90
36322;DHT22;23564;48.290;11.460;2022-08-03T05:58:47;18.40;99.90
36322;DHT22;23564;48.290;11.460;2022-08-03T06:01:14;18.60;99.90
36322;DHT22;23564;48.290;11.460;2022-08-03T06:03:40;18.70;99.90
36322;DHT22;23564;48.290;11.460;2022-08-03T06:06:05;18.80;99.90
36322;DHT22;23564;48.290;11.460;2022-08-03T06:08:31;18.90;99.90
36322;DHT22;23564;48.290;11.460;2022-08-03T06:10:56;19.00;99.90
36322;DHT22;23564;48.290;11.460;2022-08-03T06:13:22;19.10;99.90
36322;DHT22;23564;48.290;11.460;2022-08-03T06:15:48;19.20;99.90
36322;DHT22;23564;48.290;11.460;2022-08-03T06:18:13;19.30;99.90
36322;DHT22;23564;48.290;11.460;2022-08-03T06:20:39;19.40;99.90
36322;DHT22;23564;48.290;11.460;2022-08-03T06:23:04;19.40;99.90
36322;DHT22;23564;48.290;11.460;2022-08-03T06:25:30;19.50;99.90
36322;DHT22;23564;48.290;11.460;2022-08-03T06:27:56;19.60;99.90
36322;DHT22;23564;48.290;11.460;2022-08-03T06:30:21;19.60;99.90
36322;DHT22;23564;48.290;11.460;2022-08-03T06:32:47;19.60;99.90
36322;DHT22;23564;48.290;11.460;2022-08-03T06:35:13;19.70;99.90
36322;DHT22;23564;48.290;11.460;2022-08-03T06:37:49;19.70;99.90
36322;DHT22;23564;48.290;11.460;2022-08-03T06:40:19;19.70;91.10
36322;DHT22;23564;48.290;11.460;2022-08-03T06:42:45;19.80;79.50
36322;DHT22;23564;48.290;11.460;2022-08-03T06:45:11;19.80;93.90
36322;DHT22;23564;48.290;11.460;2022-08-03T06:47:38;19.90;34.00
36322;DHT22;23564;48.290;11.460;2022-08-03T06:50:05;20.00;32.60
36322;DHT22;23564;48.290;11.460;2022-08-03T06:52:31;20.00;21.80
36322;DHT22;23564;48.290;11.460;2022-08-03T06:54:57;20.00;1.00
36322;DHT22;23564;48.290;11.460;2022-08-03T06:57:23;20.10;1.00
36322;DHT22;23564;48.290;11.460;2022-08-03T06:59:49;20.10;1.00
36322;DHT22;23564;48.290;11.460;2022-08-03T07:02:14;20.20;1.00
36322;DHT22;23564;48.290;11.460;2022-08-03T07:04:40;20.20;99.90
36322;DHT22;23564;48.290;11.460;2022-08-03T07:07:06;20.30;99.90
36322;DHT22;23564;48.290;11.460;2022-08-03T07:09:31;20.40;99.90
36322;DHT22;23564;48.290;11.460;2022-08-03T07:11:57;20.40;99.90
36322;DHT22;23564;48.290;11.460;2022-08-03T07:14:23;20.50;99.90
36322;DHT22;23564;48.290;11.460;2022-08-03T07:16:49;20.50;99.90
36322;DHT22;23564;48.290;11.460;2022-08-03T07:19:14;20.50;99.90
36322;DHT22;23564;48.290;11.460;2022-08-03T07:21:40;20.50;99.90
36322;DHT22;23564;48.290;11.460;2022-08-03T07:24:06;20.60;99.90
36322;DHT22;23564;48.290;11.460;2022-08-03T07:26:31;20.70;99.90
36322;DHT22;23564;48.290;11.460;2022-08-03T07:28:57;20.70;99.90
36322;DHT22;23564;48.290;11.460;2022-08-03T07:31:22;20.80;1.00
36322;DHT22;23564;48.290;11.460;2022-08-03T07:33:48;20.80;1.00
36322;DHT22;23564;48.290;11.460;2022-08-03T07:36:14;20.90;1.00
36322;DHT22;23564;48.290;11.460;2022-08-03T07:38:39;20.90;1.00
36322;DHT22;23564;48.290;11.460;2022-08-03T07:41:05;21.00;1.00
36322;DHT22;23564;48.290;11.460;2022-08-03T07:43:30;21.10;1.00
36322;DHT22;23564;48.290;11.460;2022-08-03T07:45:56;21.10;1.00
36322;DHT22;23564;48.290;11.460;2022-08-03T07:48:22;21.20;1.00
36322;DHT22;23564;48.290;11.460;2022-08-03T07:50:47;21.30;1.00
36322;DHT22;23564;48.290;11.460;2022-08-03T07:53:13;21.40;99.90
36322;DHT22;23564;48.290;11.460;2022-08-03T07:55:39;21.40;99.90
36322;DHT22;23564;48.290;11.460;2022-08-03T07:58:07;21.50;99.90
36322;DHT22;23564;48.290;11.460;2022-08-03T08:00:42;21.50;99.90
36322;DHT22;23564;48.290;11.460;2022-08-03T08:03:10;21.60;99.90
36322;DHT22;23564;48.290;11.460;2022-08-03T08:05:36;21.60;99.90
36322;DHT22;23564;48.290;11.460;2022-08-03T08:08:02;21.70;99.90
36322;DHT22;23564;48.290;11.460;2022-08-03T08:10:28;21.80;99.90
36322;DHT22;23564;48.290;11.460;2022-08-03T08:12:55;21.90;99.90
36322;DHT22;23564;48.290;11.460;2022-08-03T08:15:20;22.00;99.90
36322;DHT22;23564;48.290;11.460;2022-08-03T08:17:50;22.10;99.90
36322;DHT22;23564;48.290;11.460;2022-08-03T08:20:24;22.20;99.90
36322;DHT22;23564;48.290;11.460;2022-08-03T08:22:50;22.30;99.90
36322;DHT22;23564;48.290;11.460;2022-08-03T08:25:16;22.40;57.40
36322;DHT22;23564;48.290;11.460;2022-08-03T08:27:46;22.40;74.50
36322;DHT22;23564;48.290;11.460;2022-08-03T08:30:13;22.50;12.10
36322;DHT22;23564;48.290;11.460;2022-08-03T08:32:39;22.60;1.00
36322;DHT22;23564;48.290;11.460;2022-08-03T08:35:05;22.60;1.00
36322;DHT22;23564;48.290;11.460;2022-08-03T08:37:32;22.70;99.90
36322;DHT22;23564;48.290;11.460;2022-08-03T08:39:58;22.80;99.90
36322;DHT22;23564;48.290;11.460;2022-08-03T08:42:24;22.90;99.90
36322;DHT22;23564;48.290;11.460;2022-08-03T08:44:49;23.00;89.60
36322;DHT22;23564;48.290;11.460;2022-08-03T08:47:21;23.00;17.40
36322;DHT22;23564;48.290;11.460;2022-08-03T08:49:52;23.10;1.00
36322;DHT22;23564;48.290;11.460;2022-08-03T08:52:22;23.20;1.00
36322;DHT22;23564;48.290;11.460;2022-08-03T08:54:49;23.20;1.00
36322;DHT22;23564;48.290;11.460;2022-08-03T08:57:16;23.30;99.90
36322;DHT22;23564;48.290;11.460;2022-08-03T08:59:43;23.30;99.90
36322;DHT22;23564;48.290;11.460;2022-08-03T09:02:09;23.40;99.90
36322;DHT22;23564;48.290;11.460;2022-08-03T09:04:38;23.50;99.90
36322;DHT22;23564;48.290;11.460;2022-08-03T09:07:04;23.70;99.90
36322;DHT22;23564;48.290;11.460;2022-08-03T09:09:30;23.60;98.40
36322;DHT22;23564;48.290;11.460;2022-08-03T09:11:56;23.70;99.90
36322;DHT22;23564;48.290;11.460;2022-08-03T09:14:22;23.80;99.90
36322;DHT22;23564;48.290;11.460;2022-08-03T09:17:01;23.90;1.00
36322;DHT22;23564;48.290;11.460;2022-08-03T09:19:28;23.90;1.00
36322;DHT22;23564;48.290;11.460;2022-08-03T09:22:10;24.00;1.00
36322;DHT22;23564;48.290;11.460;2022-08-03T09:24:38;24.10;1.00
36322;DHT22;23564;48.290;11.460;2022-08-03T09:27:17;24.20;99.90
36322;DHT22;23564;48.290;11.460;2022-08-03T09:29:47;24.20;99.90
36322;DHT22;23564;48.290;11.460;2022-08-03T09:32:13;24.30;99.90
36322;DHT22;23564;48.290;11.460;2022-08-03T09:34:38;24.30;99.90
36322;DHT22;23564;48.290;11.460;2022-08-03T09:37:12;24.30;99.90
36322;DHT22;23564;48.290;11.460;2022-08-03T09:39:38;24.40;96.40
36322;DHT22;23564;48.290;11.460;2022-08-03T09:42:10;24.50;36.80
36322;DHT22;23564;48.290;11.460;2022-08-03T09:44:37;24.60;1.00
36322;DHT22;23564;48.290;11.460;2022-08-03T09:47:04;24.60;1.00
36322;DHT22;23564;48.290;11.460;2022-08-03T09:49:31;24.60;1.00
36322;DHT22;23564;48.290;11.460;2022-08-03T09:52:00;24.60;99.90
36322;DHT22;23564;48.290;11.460;2022-08-03T09:54:29;24.70;99.90
36322;DHT22;23564;48.290;11.460;2022-08-03T09:56:56;24.60;99.90
36322;DHT22;23564;48.290;11.460;2022-08-03T09:59:27;24.60;99.90
36322;DHT22;23564;48.290;11.460;2022-08-03T10:01:54;24.70;99.90
36322;DHT22;23564;48.290;11.460;2022-08-03T10:04:21;24.70;97.20
36322;DHT22;23564;48.290;11.460;2022-08-03T10:09:28;24.80;1.00
36322;DHT22;23564;48.290;11.460;2022-08-03T10:11:54;24.80;1.00
36322;DHT22;23564;48.290;11.460;2022-08-03T10:14:19;24.90;1.00
36322;DHT22;23564;48.290;11.460;2022-08-03T10:16:47;24.90;1.00
36322;DHT22;23564;48.290;11.460;2022-08-03T10:19:13;24.90;1.00
36322;DHT22;23564;48.290;11.460;2022-08-03T10:21:41;24.90;99.90
36322;DHT22;23564;48.290;11.460;2022-08-03T10:24:11;25.00;1.00
36322;DHT22;23564;48.290;11.460;2022-08-03T10:26:40;25.10;99.90
36322;DHT22;23564;48.290;11.460;2022-08-03T10:29:11;25.20;99.90
36322;DHT22;23564;48.290;11.460;2022-08-03T10:31:40;25.20;99.90
36322;DHT22;23564;48.290;11.460;2022-08-03T10:34:21;25.20;99.90
36322;DHT22;23564;48.290;11.460;2022-08-03T10:36:48;25.20;99.90
36322;DHT22;23564;48.290;11.460;2022-08-03T10:39:18;25.20;99.90
36322;DHT22;23564;48.290;11.460;2022-08-03T10:41:44;25.40;99.90
36322;DHT22;23564;48.290;11.460;2022-08-03T10:44:19;25.40;99.90
36322;DHT22;23564;48.290;11.460;2022-08-03T10:46:46;25.40;99.90
36322;DHT22;23564;48.290;11.460;2022-08-03T10:49:17;25.50;99.90
36322;DHT22;23564;48.290;11.460;2022-08-03T10:51:44;25.60;99.90
36322;DHT22;23564;48.290;11.460;2022-08-03T10:54:42;25.60;99.90
36322;DHT22;23564;48.290;11.460;2022-08-03T10:57:46;25.70;99.90
36322;DHT22;23564;48.290;11.460;2022-08-03T11:00:14;25.70;99.90
36322;DHT22;23564;48.290;11.460;2022-08-03T11:05:29;25.70;91.80
36322;DHT22;23564;48.290;11.460;2022-08-03T11:08:18;25.60;99.90
36322;DHT22;23564;48.290;11.460;2022-08-03T11:10:44;25.70;20.50
36322;DHT22;23564;48.290;11.460;2022-08-03T11:13:14;25.70;1.00
36322;DHT22;23564;48.290;11.460;2022-08-03T11:15:45;25.80;64.50
36322;DHT22;23564;48.290;11.460;2022-08-03T11:18:12;26.00;71.40
36322;DHT22;23564;48.290;11.460;2022-08-03T11:20:55;26.10;49.70
36322;DHT22;23564;48.290;11.460;2022-08-03T11:23:42;26.10;1.00
36322;DHT22;23564;48.290;11.460;2022-08-03T11:28:36;26.00;1.00
36322;DHT22;23564;48.290;11.460;2022-08-03T11:34:07;26.00;1.00
36322;DHT22;23564;48.290;11.460;2022-08-03T11:39:38;25.80;1.00
36322;DHT22;23564;48.290;11.460;2022-08-03T11:44:49;26.10;1.00
36322;DHT22;23564;48.290;11.460;2022-08-03T11:47:16;26.10;1.00
36322;DHT22;23564;48.290;11.460;2022-08-03T11:49:50;26.20;1.00
36322;DHT22;23564;48.290;11.460;2022-08-03T11:52:16;26.10;1.00
36322;DHT22;23564;48.290;11.460;2022-08-03T11:54:42;26.00;1.00
36322;DHT22;23564;48.290;11.460;2022-08-03T11:57:08;26.10;1.00
36322;DHT22;23564;48.290;11.460;2022-08-03T11:59:35;26.10;99.90
36322;DHT22;23564;48.290;11.460;2022-08-03T12:02:11;26.10;1.00
36322;DHT22;23564;48.290;11.460;2022-08-03T12:04:57;26.00;1.00
36322;DHT22;23564;48.290;11.460;2022-08-03T12:07:28;26.10;99.90
36322;DHT22;23564;48.290;11.460;2022-08-03T12:10:11;26.20;99.90
36322;DHT22;23564;48.290;11.460;2022-08-03T12:12:38;26.40;99.90
36322;DHT22;23564;48.290;11.460;2022-08-03T12:15:05;26.50;99.90
36322;DHT22;23564;48.290;11.460;2022-08-03T12:17:33;26.60;99.90
36322;DHT22;23564;48.290;11.460;2022-08-03T12:20:00;26.60;99.90
36322;DHT22;23564;48.290;11.460;2022-08-03T12:22:36;26.60;99.90
36322;DHT22;23564;48.290;11.460;2022-08-03T12:25:07;26.60;99.90
36322;DHT22;23564;48.290;11.460;2022-08-03T12:27:33;26.60;99.90
36322;DHT22;23564;48.290;11.460;2022-08-03T12:30:00;26.60;99.90
36322;DHT22;23564;48.290;11.460;2022-08-03T12:32:27;26.50;99.90
36322;DHT22;23564;48.290;11.460;2022-08-03T12:34:54;26.50;99.90
36322;DHT22;23564;48.290;11.460;2022-08-03T12:37:24;26.60;99.90
36322;DHT22;23564;48.290;11.460;2022-08-03T12:39:57;26.60;99.90
36322;DHT22;23564;48.290;11.460;2022-08-03T12:42:35;26.70;99.90
36322;DHT22;23564;48.290;11.460;2022-08-03T12:45:23;26.80;99.90
36322;DHT22;23564;48.290;11.460;2022-08-03T12:47:54;27.00;99.90
36322;DHT22;23564;48.290;11.460;2022-08-03T12:50:29;27.10;99.90
36322;DHT22;23564;48.290;11.460;2022-08-03T12:52:56;27.10;99.90
36322;DHT22;23564;48.290;11.460;2022-08-03T12:55:22;27.20;99.90
36322;DHT22;23564;48.290;11.460;2022-08-03T12:57:49;27.20;99.90
36322;DHT22;23564;48.290;11.460;2022-08-03T13:00:17;27.10;99.90
36322;DHT22;23564;48.290;11.460;2022-08-03T13:02:43;27.00;99.90
36322;DHT22;23564;48.290;11.460;2022-08-03T13:05:10;27.00;99.90
36322;DHT22;23564;48.290;11.460;2022-08-03T13:07:44;27.10;99.90
36322;DHT22;23564;48.290;11.460;2022-08-03T13:10:10;27.20;99.90
36322;DHT22;23564;48.290;11.460;2022-08-03T13:12:49;27.30;60.00
36322;DHT22;23564;48.290;11.460;2022-08-03T13:15:15;27.40;84.10
36322;DHT22;23564;48.290;11.460;2022-08-03T13:17:41;27.30;99.90
36322;DHT22;23564;48.290;11.460;2022-08-03T13:20:07;27.30;93.90
36322;DHT22;23564;48.290;11.460;2022-08-03T13:22:33;27.30;54.80
36322;DHT22;23564;48.290;11.460;2022-08-03T13:24:59;27.40;93.80
36322;DHT22;23564;48.290;11.460;2022-08-03T13:27:26;27.50;14.60
36322;DHT22;23564;48.290;11.460;2022-08-03T13:29:53;27.60;8.90
36322;DHT22;23564;48.290;11.460;2022-08-03T13:32:19;27.70;1.00
36322;DHT22;23564;48.290;11.460;2022-08-03T13:34:45;27.80;1.00
36322;DHT22;23564;48.290;11.460;2022-08-03T13:37:12;27.80;1.00
36322;DHT22;23564;48.290;11.460;2022-08-03T13:39:38;27.80;1.00
36322;DHT22;23564;48.290;11.460;2022-08-03T13:42:04;27.80;1.00
36322;DHT22;23564;48.290;11.460;2022-08-03T13:44:33;27.90;1.00
36322;DHT22;23564;48.290;11.460;2022-08-03T13:47:01;27.90;1.00
36322;DHT22;23564;48.290;11.460;2022-08-03T13:49:27;27.80;1.00
36322;DHT22;23564;48.290;11.460;2022-08-03T13:51:53;27.70;1.00
36322;DHT22;23564;48.290;11.460;2022-08-03T13:54:18;27.70;1.00
36322;DHT22;23564;48.290;11.460;2022-08-03T13:56:44;27.70;1.00
36322;DHT22;23564;48.290;11.460;2022-08-03T13:59:17;27.70;1.00
36322;DHT22;23564;48.290;11.460;2022-08-03T14:01:44;27.60;1.00
36322;DHT22;23564;48.290;11.460;2022-08-03T14:04:10;27.70;1.00
36322;DHT22;23564;48.290;11.460;2022-08-03T14:06:36;27.70;1.00
36322;DHT22;23564;48.290;11.460;2022-08-03T14:09:01;27.80;1.00
36322;DHT22;23564;48.290;11.460;2022-08-03T14:11:27;27.90;1.00
36322;DHT22;23564;48.290;11.460;2022-08-03T14:13:53;28.00;1.00
36322;DHT22;23564;48.290;11.460;2022-08-03T14:16:18;28.10;1.00
36322;DHT22;23564;48.290;11.460;2022-08-03T14:18:44;28.20;1.00
36322;DHT22;23564;48.290;11.460;2022-08-03T14:21:11;28.30;1.00
36322;DHT22;23564;48.290;11.460;2022-08-03T14:23:37;28.40;1.00
36322;DHT22;23564;48.290;11.460;2022-08-03T14:26:06;28.40;1.00
36322;DHT22;23564;48.290;11.460;2022-08-03T14:28:32;28.40;1.00
36322;DHT22;23564;48.290;11.460;2022-08-03T14:30:58;28.40;1.00
36322;DHT22;23564;48.290;11.460;2022-08-03T14:33:24;28.50;1.00
36322;DHT22;23564;48.290;11.460;2022-08-03T14:35:50;28.50;1.00
36322;DHT22;23564;48.290;11.460;2022-08-03T14:38:16;28.50;99.90
36322;DHT22;23564;48.290;11.460;2022-08-03T14:40:43;28.60;99.90
36322;DHT22;23564;48.290;11.460;2022-08-03T14:43:08;28.60;99.90
36322;DHT22;23564;48.290;11.460;2022-08-03T14:45:34;28.60;99.90
36322;DHT22;23564;48.290;11.460;2022-08-03T14:48:00;28.70;99.90
36322;DHT22;23564;48.290;11.460;2022-08-03T14:50:26;28.80;99.90
36322;DHT22;23564;48.290;11.460;2022-08-03T14:52:55;28.80;99.90
36322;DHT22;23564;48.290;11.460;2022-08-03T14:55:20;29.00;99.90
36322;DHT22;23564;48.290;11.460;2022-08-03T14:57:46;29.10;99.90
36322;DHT22;23564;48.290;11.460;2022-08-03T15:00:12;29.30;99.90
36322;DHT22;23564;48.290;11.460;2022-08-03T15:02:38;29.50;99.90
36322;DHT22;23564;48.290;11.460;2022-08-03T15:05:04;29.60;99.90
36322;DHT22;23564;48.290;11.460;2022-08-03T15:07:29;29.80;99.90
36322;DHT22;23564;48.290;11.460;2022-08-03T15:09:55;29.90;99.90
36322;DHT22;23564;48.290;11.460;2022-08-03T15:12:21;30.00;99.90
36322;DHT22;23564;48.290;11.460;2022-08-03T15:14:46;30.10;99.90
36322;DHT22;23564;48.290;11.460;2022-08-03T15:17:12;30.20;99.90
36322;DHT22;23564;48.290;11.460;2022-08-03T15:19:37;30.30;99.90
36322;DHT22;23564;48.290;11.460;2022-08-03T15:22:04;30.30;99.90
36322;DHT22;23564;48.290;11.460;2022-08-03T15:24:30;30.40;99.90
36322;DHT22;23564;48.290;11.460;2022-08-03T15:26:56;30.50;99.90
36322;DHT22;23564;48.290;11.460;2022-08-03T15:29:21;30.60;99.90
36322;DHT22;23564;48.290;11.460;2022-08-03T15:31:47;30.70;99.90
36322;DHT22;23564;48.290;11.460;2022-08-03T15:34:12;30.70;99.90
36322;DHT22;23564;48.290;11.460;2022-08-03T15:36:38;30.80;99.90
36322;DHT22;23564;48.290;11.460;2022-08-03T15:39:05;30.80;99.90
36322;DHT22;23564;48.290;11.460;2022-08-03T15:41:30;30.90;99.90
36322;DHT22;23564;48.290;11.460;2022-08-03T15:43:56;31.00;99.90
36322;DHT22;23564;48.290;11.460;2022-08-03T15:46:22;30.90;99.90
36322;DHT22;23564;48.290;11.460;2022-08-03T15:48:47;30.90;99.90
36322;DHT22;23564;48.290;11.460;2022-08-03T15:51:13;30.90;99.90
36322;DHT22;23564;48.290;11.460;2022-08-03T15:53:39;30.90;99.90